sensor_id;sensor_type;location;lat;lon;timestamp;temperature;humidity
31653;DHT22;18261;53.648;9.910;2023-05-18T14:16:16;21.60;74.00
31653;DHT22;18261;53.648;9.910;2023-05-18T14:18:42;22.60;67.90
31653;DHT22;18261;53.648;9.910;2023-05-18T14:21:07;22.60;67.20
31653;DHT22;18261;53.648;9.910;2023-05-18T14:23:33;22.90;66.60
31653;DHT22;18261;53.648;9.910;2023-05-18T14:25:58;23.40;65.40
31653;DHT22;18261;53.648;9.910;2023-05-18T14:28:24;23.70;64.10
31653;DHT22;18261;53.648;9.910;2023-05-18T14:30:50;24.10;63.20
31653;DHT22;18261;53.648;9.910;2023-05-18T14:33:15;24.40;60.90
31653;DHT22;18261;53.648;9.910;2023-05-18T14:35:41;25.30;59.20
31653;DHT22;18261;53.648;9.910;2023-05-18T14:40:32;26.50;53.80
31653;DHT22;18261;53.648;9.910;2023-05-18T14:42:58;26.60;53.80
31653;DHT22;18261;53.648;9.910;2023-05-18T14:45:24;27.00;52.40
31653;DHT22;18261;53.648;9.910;2023-05-18T14:47:49;27.10;51.50
31653;DHT22;18261;53.648;9.910;2023-05-18T14:50:15;26.70;50.60
31653;DHT22;18261;53.648;9.910;2023-05-18T14:52:41;26.70;50.70
31653;DHT22;18261;53.648;9.910;2023-05-18T14:55:07;26.60;49.70
31653;DHT22;18261;53.648;9.910;2023-05-18T14:57:32;26.30;49.90
31653;DHT22;18261;53.648;9.910;2023-05-18T14:59:58;26.20;49.80
31653;DHT22;18261;53.648;9.910;2023-05-18T15:02:24;25.90;50.30
31653;DHT22;18261;53.648;9.910;2023-05-18T15:04:50;25.40;51.20
31653;DHT22;18261;53.648;9.910;2023-05-18T15:07:15;25.10;51.10
31653;DHT22;18261;53.648;9.910;2023-05-18T15:09:41;24.80;51.00
31653;DHT22;18261;53.648;9.910;2023-05-18T15:12:07;24.50;51.60
31653;DHT22;18261;53.648;9.910;2023-05-18T15:14:32;24.20;52.40
31653;DHT22;18261;53.648;9.910;2023-05-18T15:16:58;24.00;53.80
31653;DHT22;18261;53.648;9.910;2023-05-18T15:19:23;23.70;54.60
31653;DHT22;18261;53.648;9.910;2023-05-18T15:21:49;23.40;54.80
31653;DHT22;18261;53.648;9.910;2023-05-18T15:24:15;23.20;54.70
31653;DHT22;18261;53.648;9.910;2023-05-18T15:26:41;23.10;55.20
31653;DHT22;18261;53.648;9.910;2023-05-18T15:29:06;23.10;56.20
31653;DHT22;18261;53.648;9.910;2023-05-18T15:31:32;22.90;55.20
31653;DHT22;18261;53.648;9.910;2023-05-18T15:33:58;22.70;55.60
31653;DHT22;18261;53.648;9.910;2023-05-18T15:36:23;22.60;56.40
31653;DHT22;18261;53.648;9.910;2023-05-18T15:38:49;22.40;56.60
31653;DHT22;18261;53.648;9.910;2023-05-18T15:41:14;22.40;57.10
31653;DHT22;18261;53.648;9.910;2023-05-18T15:43:40;22.30;57.10
31653;DHT22;18261;53.648;9.910;2023-05-18T15:46:06;22.20;57.30
31653;DHT22;18261;53.648;9.910;2023-05-18T15:48:31;22.20;57.30
31653;DHT22;18261;53.648;9.910;2023-05-18T15:50:57;22.20;57.50
31653;DHT22;18261;53.648;9.910;2023-05-18T15:53:23;22.20;56.90
31653;DHT22;18261;53.648;9.910;2023-05-18T15:55:48;21.90;57.40
31653;DHT22;18261;53.648;9.910;2023-05-18T15:58:15;21.70;57.50
31653;DHT22;18261;53.648;9.910;2023-05-18T16:00:41;21.50;57.10
31653;DHT22;18261;53.648;9.910;2023-05-18T16:03:07;21.20;57.40
31653;DHT22;18261;53.648;9.910;2023-05-18T16:05:33;21.10;58.10
31653;DHT22;18261;53.648;9.910;2023-05-18T16:07:58;21.00;58.70
31653;DHT22;18261;53.648;9.910;2023-05-18T16:10:24;20.90;59.50
31653;DHT22;18261;53.648;9.910;2023-05-18T16:12:49;20.70;59.80
31653;DHT22;18261;53.648;9.910;2023-05-18T16:15:15;20.60;60.90
31653;DHT22;18261;53.648;9.910;2023-05-18T16:17:41;20.50;61.10
31653;DHT22;18261;53.648;9.910;2023-05-18T16:20:07;20.40;61.70
31653;DHT22;18261;53.648;9.910;2023-05-18T16:22:32;20.30;61.50
31653;DHT22;18261;53.648;9.910;2023-05-18T16:24:58;20.10;62.90
31653;DHT22;18261;53.648;9.910;2023-05-18T16:27:24;19.90;63.60
31653;DHT22;18261;53.648;9.910;2023-05-18T16:29:49;19.70;63.90
31653;DHT22;18261;53.648;9.910;2023-05-18T16:32:16;19.70;64.40
31653;DHT22;18261;53.648;9.910;2023-05-18T16:34:41;19.50;64.50
31653;DHT22;18261;53.648;9.910;2023-05-18T16:37:07;19.50;64.50
31653;DHT22;18261;53.648;9.910;2023-05-18T16:39:33;19.50;64.80
31653;DHT22;18261;53.648;9.910;2023-05-18T16:41:58;19.50;64.50
31653;DHT22;18261;53.648;9.910;2023-05-18T16:44:24;19.50;65.30
31653;DHT22;18261;53.648;9.910;2023-05-18T16:46:49;19.50;64.50
31653;DHT22;18261;53.648;9.910;2023-05-18T16:49:15;19.40;64.70
31653;DHT22;18261;53.648;9.910;2023-05-18T16:51:41;19.40;64.10
31653;DHT22;18261;53.648;9.910;2023-05-18T16:54:07;19.40;64.20
31653;DHT22;18261;53.648;9.910;2023-05-18T16:56:32;19.30;63.00
31653;DHT22;18261;53.648;9.910;2023-05-18T16:59:00;19.20;63.40
31653;DHT22;18261;53.648;9.910;2023-05-18T17:01:25;19.10;63.50
31653;DHT22;18261;53.648;9.910;2023-05-18T17:03:51;19.00;64.10
31653;DHT22;18261;53.648;9.910;2023-05-18T17:06:17;18.90;63.40
31653;DHT22;18261;53.648;9.910;2023-05-18T17:08:44;19.00;64.20
31653;DHT22;18261;53.648;9.910;2023-05-18T17:11:10;19.00;62.90
31653;DHT22;18261;53.648;9.910;2023-05-18T17:13:36;18.90;63.00
31653;DHT22;18261;53.648;9.910;2023-05-18T17:16:02;18.90;62.80
31653;DHT22;18261;53.648;9.910;2023-05-18T17:18:28;18.80;63.10
31653;DHT22;18261;53.648;9.910;2023-05-18T17:20:54;18.80;63.60
31653;DHT22;18261;53.648;9.910;2023-05-18T17:23:20;18.80;63.70
31653;DHT22;18261;53.648;9.910;2023-05-18T17:25:45;18.80;63.60
31653;DHT22;18261;53.648;9.910;2023-05-18T17:28:11;18.70;63.60
31653;DHT22;18261;53.648;9.910;2023-05-18T17:30:38;18.70;64.00
31653;DHT22;18261;53.648;9.910;2023-05-18T17:33:04;18.60;64.40
31653;DHT22;18261;53.648;9.910;2023-05-18T17:35:29;18.60;63.80
31653;DHT22;18261;53.648;9.910;2023-05-18T17:37:55;18.50;63.90
31653;DHT22;18261;53.648;9.910;2023-05-18T17:40:21;18.60;64.70
31653;DHT22;18261;53.648;9.910;2023-05-18T17:42:47;18.60;64.90
31653;DHT22;18261;53.648;9.910;2023-05-18T17:45:12;18.60;64.50
31653;DHT22;18261;53.648;9.910;2023-05-18T17:47:38;18.60;64.90
31653;DHT22;18261;53.648;9.910;2023-05-18T17:50:06;18.60;62.70
31653;DHT22;18261;53.648;9.910;2023-05-18T17:52:31;18.50;62.00
31653;DHT22;18261;53.648;9.910;2023-05-18T17:54:57;18.40;62.20
31653;DHT22;18261;53.648;9.910;2023-05-18T17:57:23;18.30;62.50
31653;DHT22;18261;53.648;9.910;2023-05-18T17:59:48;18.20;62.70
31653;DHT22;18261;53.648;9.910;2023-05-18T18:02:14;18.10;62.80
31653;DHT22;18261;53.648;9.910;2023-05-18T18:04:40;18.00;63.10
31653;DHT22;18261;53.648;9.910;2023-05-18T18:07:06;18.00;63.30
31653;DHT22;18261;53.648;9.910;2023-05-18T18:09:31;17.90;64.30
31653;DHT22;18261;53.648;9.910;2023-05-18T18:11:57;17.90;65.10
31653;DHT22;18261;53.648;9.910;2023-05-18T18:14:24;17.90;65.60
31653;DHT22;18261;53.648;9.910;2023-05-18T18:16:50;17.80;65.90
31653;DHT22;18261;53.648;9.910;2023-05-18T18:19:16;17.80;66.20
31653;DHT22;18261;53.648;9.910;2023-05-18T18:21:41;17.80;66.70
31653;DHT22;18261;53.648;9.910;2023-05-18T18:24:07;17.70;67.40
31653;DHT22;18261;53.648;9.910;2023-05-18T18:26:33;17.70;68.10
31653;DHT22;18261;53.648;9.910;2023-05-18T18:29:04;17.60;69.00
31653;DHT22;18261;53.648;9.910;2023-05-18T18:31:30;17.60;70.00
31653;DHT22;18261;53.648;9.910;2023-05-18T18:33:56;17.50;70.60
31653;DHT22;18261;53.648;9.910;2023-05-18T18:36:21;17.60;71.20
31653;DHT22;18261;53.648;9.910;2023-05-18T18:38:47;17.50;72.20
31653;DHT22;18261;53.648;9.910;2023-05-18T18:41:13;17.40;73.20
31653;DHT22;18261;53.648;9.910;2023-05-18T18:43:42;17.30;73.90
31653;DHT22;18261;53.648;9.910;2023-05-18T18:46:07;17.30;74.90
31653;DHT22;18261;53.648;9.910;2023-05-18T18:48:33;17.20;76.20
31653;DHT22;18261;53.648;9.910;2023-05-18T18:50:59;17.10;77.20
31653;DHT22;18261;53.648;9.910;2023-05-18T18:53:24;17.00;78.50
31653;DHT22;18261;53.648;9.910;2023-05-18T18:55:50;16.80;79.80
31653;DHT22;18261;53.648;9.910;2023-05-18T18:58:16;16.70;80.90
31653;DHT22;18261;53.648;9.910;2023-05-18T19:00:41;16.60;82.00
31653;DHT22;18261;53.648;9.910;2023-05-18T19:03:07;16.50;82.60
31653;DHT22;18261;53.648;9.910;2023-05-18T19:05:34;16.40;83.50
31653;DHT22;18261;53.648;9.910;2023-05-18T19:08:00;16.40;84.00
31653;DHT22;18261;53.648;9.910;2023-05-18T19:10:26;16.30;84.90
31653;DHT22;18261;53.648;9.910;2023-05-18T19:12:52;16.30;85.70
31653;DHT22;18261;53.648;9.910;2023-05-18T19:15:18;16.30;86.20
31653;DHT22;18261;53.648;9.910;2023-05-18T19:17:45;16.30;86.90
31653;DHT22;18261;53.648;9.910;2023-05-18T19:20:11;16.20;87.40
31653;DHT22;18261;53.648;9.910;2023-05-18T19:22:37;16.20;88.00
31653;DHT22;18261;53.648;9.910;2023-05-18T19:25:03;16.20;88.40
31653;DHT22;18261;53.648;9.910;2023-05-18T19:27:28;16.10;89.10
31653;DHT22;18261;53.648;9.910;2023-05-18T19:29:54;16.00;88.60
31653;DHT22;18261;53.648;9.910;2023-05-18T19:32:20;15.90;89.70
31653;DHT22;18261;53.648;9.910;2023-05-18T19:34:45;15.90;89.50
31653;DHT22;18261;53.648;9.910;2023-05-18T19:37:11;15.80;89.50
31653;DHT22;18261;53.648;9.910;2023-05-18T19:39:36;15.80;90.20
31653;DHT22;18261;53.648;9.910;2023-05-18T19:42:02;15.70;89.70
31653;DHT22;18261;53.648;9.910;2023-05-18T19:44:28;15.60;90.10
31653;DHT22;18261;53.648;9.910;2023-05-18T19:46:53;15.60;90.40
31653;DHT22;18261;53.648;9.910;2023-05-18T19:49:19;15.50;90.60
31653;DHT22;18261;53.648;9.910;2023-05-18T19:51:45;15.50;90.90
31653;DHT22;18261;53.648;9.910;2023-05-18T19:54:11;15.50;91.10
31653;DHT22;18261;53.648;9.910;2023-05-18T19:56:36;15.50;91.40
31653;DHT22;18261;53.648;9.910;2023-05-18T19:59:02;15.50;91.50
31653;DHT22;18261;53.648;9.910;2023-05-18T20:01:28;15.40;91.80
31653;DHT22;18261;53.648;9.910;2023-05-18T20:03:53;15.40;92.00
31653;DHT22;18261;53.648;9.910;2023-05-18T20:06:21;15.30;92.30
31653;DHT22;18261;53.648;9.910;2023-05-18T20:08:46;15.30;92.60
31653;DHT22;18261;53.648;9.910;2023-05-18T20:11:12;15.30;93.00
31653;DHT22;18261;53.648;9.910;2023-05-18T20:13:39;15.20;93.40
31653;DHT22;18261;53.648;9.910;2023-05-18T20:16:07;15.10;93.70
31653;DHT22;18261;53.648;9.910;2023-05-18T20:18:34;15.00;94.10
31653;DHT22;18261;53.648;9.910;2023-05-18T20:21:00;15.00;94.40
31653;DHT22;18261;53.648;9.910;2023-05-18T20:23:26;14.90;94.70
31653;DHT22;18261;53.648;9.910;2023-05-18T20:25:51;14.80;95.00
31653;DHT22;18261;53.648;9.910;2023-05-18T20:28:18;14.80;95.20
31653;DHT22;18261;53.648;9.910;2023-05-18T20:30:44;14.80;95.50
31653;DHT22;18261;53.648;9.910;2023-05-18T20:33:09;14.70;95.60
31653;DHT22;18261;53.648;9.910;2023-05-18T20:35:36;14.60;95.70
31653;DHT22;18261;53.648;9.910;2023-05-18T20:38:02;14.60;96.00
31653;DHT22;18261;53.648;9.910;2023-05-18T20:40:28;14.50;96.20
31653;DHT22;18261;53.648;9.910;2023-05-18T20:42:58;14.40;96.50
31653;DHT22;18261;53.648;9.910;2023-05-18T20:45:26;14.50;96.80
31653;DHT22;18261;53.648;9.910;2023-05-18T20:47:54;14.40;97.10
31653;DHT22;18261;53.648;9.910;2023-05-18T20:50:20;14.30;97.40
31653;DHT22;18261;53.648;9.910;2023-05-18T20:52:50;14.30;97.90
31653;DHT22;18261;53.648;9.910;2023-05-18T20:55:18;14.30;98.40
31653;DHT22;18261;53.648;9.910;2023-05-18T20:57:44;14.20;98.70
31653;DHT22;18261;53.648;9.910;2023-05-18T21:00:13;14.20;98.80
31653;DHT22;18261;53.648;9.910;2023-05-18T21:02:41;14.10;99.00
31653;DHT22;18261;53.648;9.910;2023-05-18T21:05:09;14.10;99.40
31653;DHT22;18261;53.648;9.910;2023-05-18T21:07:34;14.00;99.90
31653;DHT22;18261;53.648;9.910;2023-05-18T21:10:05;14.00;99.90
31653;DHT22;18261;53.648;9.910;2023-05-18T21:12:31;13.90;99.90
31653;DHT22;18261;53.648;9.910;2023-05-18T21:14:57;13.90;99.90
31653;DHT22;18261;53.648;9.910;2023-05-18T21:17:22;13.80;99.90
31653;DHT22;18261;53.648;9.910;2023-05-18T21:19:48;13.80;99.90
31653;DHT22;18261;53.648;9.910;2023-05-18T21:22:14;13.80;99.90
31653;DHT22;18261;53.648;9.910;2023-05-18T21:24:40;13.70;99.90
